Time;durP1;ratioP1;P1;durP2;ratioP2;P2;SDS_P1;SDS_P2;PMS_P1;PMS_P2;Temp;Humidity;BMP_temperature;BMP_pressure;BME280_temperature;BME280_humidity;BME280_pressure;Samples;Min_cycle;Max_cycle;Signal;HPM_P1;HPM_P2
2023/12/10 00:00:34;;;;;;;5.03;3.80;;;;;;;;;;5055086;28;20429;-81
2023/12/10 00:03:00;;;;;;;4.67;3.90;;;;;;;;;;5073014;28;20924;-81
2023/12/10 00:05:26;;;;;;;7.13;4.70;;;;;;;;;;5031608;28;20532;-81
2023/12/10 00:07:52;;;;;;;9.13;5.13;;;;;;;;;;5072652;28;20468;-81
2023/12/10 00:10:18;;;;;;;9.53;5.17;;;;;;;;;;5055003;28;20450;-82
2023/12/10 00:12:46;;;;;;;7.40;5.53;;;;;;;;;;5072957;28;20502;-82
2023/12/10 00:15:12;;;;;;;6.80;4.93;;;;;;;;;;5054870;28;20556;-82
2023/12/10 00:17:39;;;;;;;8.97;6.03;;;;;;;;;;5054947;28;20416;-82
2023/12/10 00:20:05;;;;;;;9.80;5.80;;;;;;;;;;5072881;28;20499;-82
2023/12/10 00:22:31;;;;;;;7.60;6.37;;;;;;;;;;5072524;28;20434;-82
2023/12/10 00:24:57;;;;;;;7.23;5.37;;;;;;;;;;5072642;28;20481;-81
2023/12/10 00:27:23;;;;;;;5.20;3.90;;;;;;;;;;5072697;28;20947;-83
2023/12/10 00:29:49;;;;;;;7.07;3.87;;;;;;;;;;5072786;28;20411;-82
2023/12/10 00:32:15;;;;;;;6.30;4.60;;;;;;;;;;5054718;28;20508;-82
2023/12/10 00:34:41;;;;;;;4.70;3.63;;;;;;;;;;5072781;28;20503;-81
2023/12/10 00:37:07;;;;;;;4.63;3.57;;;;;;;;;;5072340;28;20411;-82
2023/12/10 00:39:33;;;;;;;12.13;6.67;;;;;;;;;;5072881;28;20432;-82
2023/12/10 00:41:59;;;;;;;6.73;3.80;;;;;;;;;;5072619;28;20431;-81
2023/12/10 00:44:27;;;;;;;11.17;5.73;;;;;;;;;;5072606;28;20413;-82
2023/12/10 00:46:53;;;;;;;8.80;5.80;;;;;;;;;;5072361;28;20440;-82
2023/12/10 00:49:19;;;;;;;9.60;6.17;;;;;;;;;;5072609;28;20946;-83
2023/12/10 00:51:45;;;;;;;7.73;5.03;;;;;;;;;;5072301;28;20747;-82
2023/12/10 00:54:11;;;;;;;7.30;5.93;;;;;;;;;;5072646;28;20896;-82
2023/12/10 00:56:37;;;;;;;8.03;5.77;;;;;;;;;;5054549;28;20419;-82
2023/12/10 00:59:03;;;;;;;9.50;5.60;;;;;;;;;;5072383;28;20408;-82
2023/12/10 01:01:29;;;;;;;7.47;5.90;;;;;;;;;;5072185;28;20450;-82
2023/12/10 01:03:55;;;;;;;8.03;5.23;;;;;;;;;;5057506;28;20424;-82
2023/12/10 01:06:21;;;;;;;10.07;5.23;;;;;;;;;;5076012;28;20515;-82
2023/12/10 01:08:47;;;;;;;7.77;5.40;;;;;;;;;;5075916;28;20558;-82
2023/12/10 01:11:13;;;;;;;6.70;5.20;;;;;;;;;;5076046;28;20411;-82
2023/12/10 01:13:38;;;;;;;6.50;5.30;;;;;;;;;;5076159;28;20426;-82
2023/12/10 01:16:05;;;;;;;8.67;4.97;;;;;;;;;;5076352;28;20400;-83
2023/12/10 01:18:34;;;;;;;8.57;6.17;;;;;;;;;;5058147;28;20428;-82
2023/12/10 01:21:02;;;;;;;6.33;4.67;;;;;;;;;;5075776;28;20409;-83
2023/12/10 01:23:28;;;;;;;6.47;4.80;;;;;;;;;;5058100;28;20426;-83
2023/12/10 01:25:54;;;;;;;7.03;4.73;;;;;;;;;;5075733;28;20467;-82
2023/12/10 01:28:20;;;;;;;6.30;5.23;;;;;;;;;;5075875;28;20552;-83
2023/12/10 01:30:46;;;;;;;8.37;4.80;;;;;;;;;;5057954;28;20409;-83
2023/12/10 01:33:12;;;;;;;5.90;4.67;;;;;;;;;;5075637;28;20446;-82
2023/12/10 01:35:38;;;;;;;5.30;3.27;;;;;;;;;;5075502;28;20880;-83
2023/12/10 01:38:03;;;;;;;6.27;4.57;;;;;;;;;;5057889;28;20488;-83
2023/12/10 01:40:29;;;;;;;5.90;3.47;;;;;;;;;;5075591;28;20412;-83
2023/12/10 01:42:55;;;;;;;5.53;4.70;;;;;;;;;;5075706;28;20416;-83
2023/12/10 01:45:21;;;;;;;4.10;2.63;;;;;;;;;;5057618;28;20784;-83
2023/12/10 01:47:51;;;;;;;6.87;4.23;;;;;;;;;;5057518;28;20506;-82
2023/12/10 01:50:18;;;;;;;4.70;3.90;;;;;;;;;;5057610;28;20499;-83
2023/12/10 01:52:47;;;;;;;3.50;2.80;;;;;;;;;;5075147;28;20471;-83
2023/12/10 01:55:13;;;;;;;3.97;2.87;;;;;;;;;;5075528;28;20440;-83
2023/12/10 01:57:39;;;;;;;4.13;2.20;;;;;;;;;;5075448;28;20413;-84
2023/12/10 02:00:07;;;;;;;3.40;1.97;;;;;;;;;;5075390;28;20858;-84
2023/12/10 02:02:33;;;;;;;5.17;3.10;;;;;;;;;;5075464;28;20465;-84
2023/12/10 02:05:02;;;;;;;4.53;3.00;;;;;;;;;;5061363;28;20429;-83
2023/12/10 02:07:28;;;;;;;4.30;3.07;;;;;;;;;;5032879;28;20491;-83
2023/12/10 02:09:55;;;;;;;3.10;2.33;;;;;;;;;;5074813;28;20410;-84
2023/12/10 02:12:21;;;;;;;4.90;3.30;;;;;;;;;;5075131;28;20437;-83
2023/12/10 02:14:47;;;;;;;3.63;2.90;;;;;;;;;;5074190;28;20901;-83
2023/12/10 02:17:14;;;;;;;3.87;2.30;;;;;;;;;;5074852;28;20419;-83
2023/12/10 02:19:40;;;;;;;3.57;2.20;;;;;;;;;;5074838;28;20429;-84
2023/12/10 02:22:13;;;;;;;3.83;1.90;;;;;;;;;;5074643;28;20461;-83
2023/12/10 02:24:44;;;;;;;3.53;1.30;;;;;;;;;;5074745;28;20459;-83
2023/12/10 02:27:10;;;;;;;4.70;2.73;;;;;;;;;;5074733;28;20470;-83
2023/12/10 02:29:36;;;;;;;4.03;2.07;;;;;;;;;;5074777;28;20427;-83
2023/12/10 02:32:02;;;;;;;4.20;2.27;;;;;;;;;;5074851;28;20739;-83
2023/12/10 02:34:28;;;;;;;4.40;2.27;;;;;;;;;;5074589;28;20507;-83
2023/12/10 02:36:57;;;;;;;2.93;2.10;;;;;;;;;;5074098;28;20903;-84
2023/12/10 02:39:22;;;;;;;4.40;3.03;;;;;;;;;;5074624;28;20978;-83
2023/12/10 02:41:48;;;;;;;3.83;2.23;;;;;;;;;;5074605;28;20411;-82
2023/12/10 02:44:14;;;;;;;3.53;1.40;;;;;;;;;;5074624;28;20412;-82
2023/12/10 02:46:50;;;;;;;4.67;2.23;;;;;;;;;;5074311;28;20407;-81
2023/12/10 02:49:16;;;;;;;4.70;2.53;;;;;;;;;;5074319;28;20424;-81
2023/12/10 02:51:42;;;;;;;4.90;2.57;;;;;;;;;;5056073;28;20771;-81
2023/12/10 02:54:08;;;;;;;7.00;2.60;;;;;;;;;;5074308;28;20436;-81
2023/12/10 02:56:34;;;;;;;3.27;2.13;;;;;;;;;;5056451;28;20961;-83
2023/12/10 02:59:00;;;;;;;3.27;1.70;;;;;;;;;;5074735;28;20508;-80
2023/12/10 03:01:26;;;;;;;3.80;2.33;;;;;;;;;;5074985;28;20503;-81
2023/12/10 03:03:52;;;;;;;4.93;2.20;;;;;;;;;;5066842;28;20407;-81
2023/12/10 03:06:18;;;;;;;3.93;2.43;;;;;;;;;;5056122;28;20418;-83
2023/12/10 03:08:44;;;;;;;5.00;2.70;;;;;;;;;;5074432;28;20480;-81
2023/12/10 03:11:09;;;;;;;4.13;2.40;;;;;;;;;;5074147;28;20811;-84
2023/12/10 03:13:35;;;;;;;5.43;3.10;;;;;;;;;;5073958;28;20455;-84
2023/12/10 03:16:01;;;;;;;3.83;2.00;;;;;;;;;;5074017;28;20411;-83
2023/12/10 03:18:27;;;;;;;5.57;2.10;;;;;;;;;;5073958;28;20420;-81
2023/12/10 03:20:53;;;;;;;8.17;3.47;;;;;;;;;;5073561;28;20904;-84
2023/12/10 03:23:19;;;;;;;4.63;2.37;;;;;;;;;;5073900;28;20417;-84
2023/12/10 03:25:45;;;;;;;7.40;2.67;;;;;;;;;;5073570;28;20531;-81
2023/12/10 03:28:11;;;;;;;5.30;2.93;;;;;;;;;;5073592;28;20479;-84
2023/12/10 03:30:37;;;;;;;8.20;3.50;;;;;;;;;;5073727;28;20411;-82
2023/12/10 03:33:06;;;;;;;7.07;2.80;;;;;;;;;;5073722;28;20422;-85
2023/12/10 03:35:32;;;;;;;8.67;4.10;;;;;;;;;;5073352;28;20929;-81
2023/12/10 03:37:58;;;;;;;5.87;3.27;;;;;;;;;;5073631;28;20443;-81
2023/12/10 03:40:24;;;;;;;5.90;3.13;;;;;;;;;;5073537;28;20415;-84
2023/12/10 03:42:50;;;;;;;5.70;3.00;;;;;;;;;;5073442;28;20409;-82
2023/12/10 03:45:16;;;;;;;8.53;3.40;;;;;;;;;;5073457;28;20778;-84
2023/12/10 03:47:46;;;;;;;7.67;2.87;;;;;;;;;;5072997;28;20555;-84
2023/12/10 03:50:12;;;;;;;9.73;4.03;;;;;;;;;;5063688;28;20877;-82
2023/12/10 03:52:38;;;;;;;11.40;2.73;;;;;;;;;;5053358;28;20401;-83
2023/12/10 03:55:04;;;;;;;9.23;3.00;;;;;;;;;;5053237;28;20902;-84
2023/12/10 03:57:30;;;;;;;8.53;3.93;;;;;;;;;;5053231;28;20796;-85
2023/12/10 03:59:56;;;;;;;8.97;3.63;;;;;;;;;;5053200;28;20413;-85
2023/12/10 04:02:25;;;;;;;8.97;3.00;;;;;;;;;;5068663;28;20265;-84
2023/12/10 04:04:51;;;;;;;11.30;4.73;;;;;;;;;;5068605;28;20185;-81
2023/12/10 04:07:17;;;;;;;7.77;3.50;;;;;;;;;;5068101;28;20463;-82
2023/12/10 04:09:42;;;;;;;17.63;4.50;;;;;;;;;;5064253;28;20923;-82
2023/12/10 04:12:08;;;;;;;13.27;3.37;;;;;;;;;;5072554;28;20207;-83
2023/12/10 04:14:35;;;;;;;17.00;3.03;;;;;;;;;;5072829;28;20993;-83
2023/12/10 04:17:01;;;;;;;11.40;2.53;;;;;;;;;;5072802;28;20401;-83
2023/12/10 04:19:27;;;;;;;14.20;3.40;;;;;;;;;;5072782;28;20412;-82
2023/12/10 04:21:52;;;;;;;17.27;4.70;;;;;;;;;;5054537;28;20759;-84
2023/12/10 04:24:18;;;;;;;20.03;3.83;;;;;;;;;;5072384;28;20495;-84
2023/12/10 04:26:44;;;;;;;21.73;4.63;;;;;;;;;;5072140;28;20430;-83
2023/12/10 04:29:10;;;;;;;16.47;3.63;;;;;;;;;;5067296;28;20472;-84
2023/12/10 04:31:37;;;;;;;17.67;2.90;;;;;;;;;;5051303;28;20421;-84
2023/12/10 04:34:02;;;;;;;15.17;4.13;;;;;;;;;;5052517;28;20483;-82
2023/12/10 04:36:28;;;;;;;21.10;4.17;;;;;;;;;;5052207;28;20977;-83
2023/12/10 04:38:54;;;;;;;17.23;3.30;;;;;;;;;;5055707;28;20410;-81
2023/12/10 04:41:20;;;;;;;10.63;2.80;;;;;;;;;;5069187;28;20785;-83
2023/12/10 04:43:48;;;;;;;27.67;5.10;;;;;;;;;;5058501;28;20416;-83
2023/12/10 04:46:14;;;;;;;18.70;4.43;;;;;;;;;;5076545;28;20467;-82
2023/12/10 04:48:40;;;;;;;24.50;4.30;;;;;;;;;;5058518;28;20555;-83
2023/12/10 04:51:06;;;;;;;17.63;3.40;;;;;;;;;;5074270;28;20413;-83
2023/12/10 04:53:32;;;;;;;19.37;3.20;;;;;;;;;;5056289;28;20414;-83
2023/12/10 04:55:59;;;;;;;16.57;3.67;;;;;;;;;;5056158;28;20497;-82
2023/12/10 04:58:25;;;;;;;16.77;3.23;;;;;;;;;;5054973;28;20425;-83
2023/12/10 05:00:50;;;;;;;19.50;3.13;;;;;;;;;;5056254;28;21042;-83
2023/12/10 05:03:16;;;;;;;15.20;3.50;;;;;;;;;;5056253;28;20409;-84
2023/12/10 05:05:42;;;;;;;17.20;4.50;;;;;;;;;;5043322;28;20451;-82
2023/12/10 05:08:08;;;;;;;13.90;3.60;;;;;;;;;;5046178;28;20979;-84
2023/12/10 05:10:34;;;;;;;22.93;3.93;;;;;;;;;;5072798;28;20422;-84
2023/12/10 05:13:03;;;;;;;10.63;2.60;;;;;;;;;;5076094;28;20448;-85
2023/12/10 05:15:29;;;;;;;23.43;4.23;;;;;;;;;;5075429;28;20416;-84
2023/12/10 05:18:04;;;;;;;14.43;2.77;;;;;;;;;;5065692;28;20420;-84
2023/12/10 05:20:30;;;;;;;22.57;3.17;;;;;;;;;;5073277;28;20434;-86
2023/12/10 05:22:57;;;;;;;20.90;4.37;;;;;;;;;;5074368;28;20515;-86
2023/12/10 05:25:23;;;;;;;18.13;3.23;;;;;;;;;;5074964;28;20457;-83
2023/12/10 05:27:49;;;;;;;13.53;2.63;;;;;;;;;;5075239;28;20840;-84
2023/12/10 05:30:24;;;;;;;21.97;4.37;;;;;;;;;;5075133;28;20408;-84
2023/12/10 05:32:50;;;;;;;21.10;3.93;;;;;;;;;;5072783;28;20412;-84
2023/12/10 05:35:16;;;;;;;24.83;4.07;;;;;;;;;;5074943;28;20978;-84
2023/12/10 05:37:42;;;;;;;29.80;7.00;;;;;;;;;;5075369;28;20495;-86
2023/12/10 05:40:08;;;;;;;18.37;3.60;;;;;;;;;;5057629;28;20987;-84
2023/12/10 05:42:34;;;;;;;17.33;4.50;;;;;;;;;;5075159;28;20906;-83
2023/12/10 05:45:00;;;;;;;21.43;4.00;;;;;;;;;;5075226;28;20424;-85
2023/12/10 05:47:26;;;;;;;24.97;4.73;;;;;;;;;;5075004;28;20457;-85
2023/12/10 05:49:52;;;;;;;23.83;3.57;;;;;;;;;;5073490;28;20423;-85
2023/12/10 05:52:18;;;;;;;17.37;2.33;;;;;;;;;;5075239;28;20406;-83
2023/12/10 05:54:44;;;;;;;13.80;5.67;;;;;;;;;;5075236;28;20419;-84
2023/12/10 05:57:09;;;;;;;19.73;3.20;;;;;;;;;;5057123;28;20423;-83
2023/12/10 05:59:35;;;;;;;16.17;2.70;;;;;;;;;;5074983;28;20603;-84
2023/12/10 06:02:01;;;;;;;24.77;3.03;;;;;;;;;;5074987;28;20411;-84
2023/12/10 06:04:30;;;;;;;14.53;2.77;;;;;;;;;;5074940;28;20914;-84
2023/12/10 06:06:56;;;;;;;17.10;3.10;;;;;;;;;;5070390;28;20437;-84
2023/12/10 06:09:22;;;;;;;21.50;2.60;;;;;;;;;;5037565;28;20442;-83
2023/12/10 06:11:48;;;;;;;19.47;3.70;;;;;;;;;;5074731;28;20420;-81
2023/12/10 06:14:14;;;;;;;15.50;3.50;;;;;;;;;;5074868;28;20418;-84
2023/12/10 06:16:40;;;;;;;17.10;3.33;;;;;;;;;;5074771;28;20420;-83
2023/12/10 06:19:06;;;;;;;15.80;3.10;;;;;;;;;;5074886;28;20769;-81
2023/12/10 06:21:33;;;;;;;20.70;4.67;;;;;;;;;;5073055;28;20446;-85
2023/12/10 06:23:59;;;;;;;17.77;3.43;;;;;;;;;;5074556;28;20412;-81
2023/12/10 06:26:25;;;;;;;14.57;3.13;;;;;;;;;;5074594;28;20411;-81
2023/12/10 06:28:51;;;;;;;15.53;3.20;;;;;;;;;;5074526;28;20221;-84
2023/12/10 06:31:17;;;;;;;13.53;3.07;;;;;;;;;;5074740;28;20418;-80
2023/12/10 06:33:44;;;;;;;16.83;2.57;;;;;;;;;;5074602;28;20414;-85
2023/12/10 06:36:10;;;;;;;15.03;2.10;;;;;;;;;;5074057;28;20414;-84
2023/12/10 06:38:36;;;;;;;16.47;2.83;;;;;;;;;;5056610;28;20521;-82
2023/12/10 06:41:02;;;;;;;14.03;2.70;;;;;;;;;;5074424;28;20410;-86
2023/12/10 06:43:28;;;;;;;19.87;2.83;;;;;;;;;;5074397;28;20407;-81
2023/12/10 06:45:58;;;;;;;14.00;2.03;;;;;;;;;;5074277;28;20407;-86
2023/12/10 06:48:24;;;;;;;9.10;1.53;;;;;;;;;;5073615;28;20995;-82
2023/12/10 06:50:50;;;;;;;13.13;2.73;;;;;;;;;;5073900;28;20409;-86
2023/12/10 06:53:15;;;;;;;10.43;2.30;;;;;;;;;;5074076;28;20774;-83
2023/12/10 06:55:41;;;;;;;9.40;2.33;;;;;;;;;;5074153;28;20413;-83
2023/12/10 06:58:07;;;;;;;9.77;2.20;;;;;;;;;;5055946;28;20430;-80
2023/12/10 07:00:33;;;;;;;14.20;2.03;;;;;;;;;;5073593;28;20411;-82
2023/12/10 07:02:59;;;;;;;14.63;2.33;;;;;;;;;;5073944;28;20769;-80
2023/12/10 07:05:25;;;;;;;14.73;3.60;;;;;;;;;;5072450;28;20421;-86
2023/12/10 07:07:51;;;;;;;13.83;2.03;;;;;;;;;;5055817;28;20691;-86
2023/12/10 07:10:17;;;;;;;9.73;1.73;;;;;;;;;;5073704;28;20483;-81
2023/12/10 07:12:42;;;;;;;13.43;2.90;;;;;;;;;;5073715;28;20170;-82
2023/12/10 07:15:09;;;;;;;16.50;2.73;;;;;;;;;;5055782;28;20940;-82
2023/12/10 07:17:36;;;;;;;8.80;2.13;;;;;;;;;;5073642;28;20790;-84
2023/12/10 07:20:02;;;;;;;5.83;1.37;;;;;;;;;;5073220;28;20405;-82
2023/12/10 07:22:28;;;;;;;16.50;2.50;;;;;;;;;;5073447;28;20411;-84
2023/12/10 07:24:54;;;;;;;8.40;1.77;;;;;;;;;;5073347;28;20491;-85
2023/12/10 07:27:19;;;;;;;13.67;2.00;;;;;;;;;;5073407;28;20199;-82
2023/12/10 07:29:45;;;;;;;14.20;1.43;;;;;;;;;;5055478;28;20905;-83
2023/12/10 07:32:14;;;;;;;8.50;1.67;;;;;;;;;;5073199;28;20422;-84
2023/12/10 07:34:40;;;;;;;14.43;1.80;;;;;;;;;;5073099;28;20408;-83
2023/12/10 07:37:06;;;;;;;9.40;1.70;;;;;;;;;;5032235;28;20773;-85
2023/12/10 07:39:32;;;;;;;8.10;1.60;;;;;;;;;;5038484;28;20400;-83
2023/12/10 07:41:58;;;;;;;9.90;1.30;;;;;;;;;;5073069;28;20437;-81
2023/12/10 07:44:24;;;;;;;9.33;1.30;;;;;;;;;;5073250;28;20423;-82
2023/12/10 07:46:51;;;;;;;10.63;2.23;;;;;;;;;;5073261;28;20909;-84
2023/12/10 07:49:17;;;;;;;7.47;0.80;;;;;;;;;;5073769;28;20474;-84
2023/12/10 07:51:42;;;;;;;12.50;1.70;;;;;;;;;;5073389;28;20405;-82
2023/12/10 07:54:09;;;;;;;6.53;0.87;;;;;;;;;;5080291;28;20414;-84
2023/12/10 07:56:35;;;;;;;13.13;1.50;;;;;;;;;;5072689;28;20180;-82
2023/12/10 07:59:01;;;;;;;9.00;1.33;;;;;;;;;;5073472;28;20418;-84
2023/12/10 08:01:27;;;;;;;6.33;0.70;;;;;;;;;;5073202;28;20441;-83
2023/12/10 08:03:52;;;;;;;5.10;1.37;;;;;;;;;;5055015;28;20806;-82
2023/12/10 08:06:19;;;;;;;14.20;2.57;;;;;;;;;;5072481;28;20422;-82
2023/12/10 08:08:45;;;;;;;10.52;1.40;;;;;;;;;;5071864;28;20445;-85
2023/12/10 08:11:14;;;;;;;4.77;0.83;;;;;;;;;;5072865;28;20164;-85
2023/12/10 08:13:40;;;;;;;5.93;0.50;;;;;;;;;;5054314;28;20450;-82
2023/12/10 08:16:06;;;;;;;4.37;0.93;;;;;;;;;;5073177;28;20506;-86
2023/12/10 08:18:32;;;;;;;7.23;1.40;;;;;;;;;;5073244;28;20409;-86
2023/12/10 08:20:59;;;;;;;8.90;0.93;;;;;;;;;;5072822;28;20783;-87
2023/12/10 08:23:25;;;;;;;3.87;1.23;;;;;;;;;;5073182;28;20167;-86
2023/12/10 08:25:51;;;;;;;2.60;0.70;;;;;;;;;;5072885;28;20465;-84
2023/12/10 08:28:17;;;;;;;8.20;2.40;;;;;;;;;;5055666;28;20855;-85
2023/12/10 08:30:43;;;;;;;5.60;0.87;;;;;;;;;;5055997;28;20417;-88
2023/12/10 08:33:08;;;;;;;3.63;1.10;;;;;;;;;;5073139;28;20448;-88
2023/12/10 08:35:34;;;;;;;5.37;0.90;;;;;;;;;;5072840;28;20416;-87
2023/12/10 08:38:00;;;;;;;4.07;0.77;;;;;;;;;;5073302;28;20202;-85
2023/12/10 08:40:26;;;;;;;6.60;2.50;;;;;;;;;;5054938;28;20422;-88
2023/12/10 08:42:52;;;;;;;4.93;0.50;;;;;;;;;;5072524;28;20437;-86
2023/12/10 08:45:18;;;;;;;11.33;1.90;;;;;;;;;;5054735;28;20877;-86
2023/12/10 08:47:44;;;;;;;9.00;0.83;;;;;;;;;;5072510;28;20800;-87
2023/12/10 08:50:10;;;;;;;4.50;2.07;;;;;;;;;;5072438;28;20411;-87
2023/12/10 08:52:36;;;;;;;9.23;3.10;;;;;;;;;;5073119;28;20435;-85
2023/12/10 08:55:02;;;;;;;2.20;0.97;;;;;;;;;;5073184;28;20540;-89
2023/12/10 08:57:28;;;;;;;8.53;2.57;;;;;;;;;;5072968;28;20173;-89
2023/12/10 09:00:00;;;;;;;8.73;1.83;;;;;;;;;;5057897;28;20418;-84
2023/12/10 09:02:29;;;;;;;7.00;1.43;;;;;;;;;;5072715;28;20460;-89
2023/12/10 09:04:55;;;;;;;5.63;1.33;;;;;;;;;;5072501;28;20447;-82
2023/12/10 09:07:21;;;;;;;8.70;1.30;;;;;;;;;;5072812;28;20504;-82
2023/12/10 09:09:47;;;;;;;5.80;1.10;;;;;;;;;;5072869;28;20823;-84
2023/12/10 09:12:13;;;;;;;3.00;1.13;;;;;;;;;;5072821;28;20421;-88
2023/12/10 09:14:39;;;;;;;8.40;1.00;;;;;;;;;;5054592;28;20429;-84
2023/12/10 09:17:05;;;;;;;5.80;1.67;;;;;;;;;;5072003;28;20508;-85
2023/12/10 09:19:31;;;;;;;5.93;1.60;;;;;;;;;;5071929;28;20425;-87
2023/12/10 09:21:58;;;;;;;2.60;0.70;;;;;;;;;;5072220;28;20228;-87
2023/12/10 09:24:24;;;;;;;4.90;0.83;;;;;;;;;;5074555;28;20993;-85
2023/12/10 09:26:51;;;;;;;7.10;1.20;;;;;;;;;;5075958;28;20411;-84
2023/12/10 09:29:17;;;;;;;4.83;1.10;;;;;;;;;;5057676;28;20536;-85
2023/12/10 09:31:43;;;;;;;5.80;0.97;;;;;;;;;;5057655;28;20877;-86
2023/12/10 09:34:09;;;;;;;6.10;0.73;;;;;;;;;;5075555;28;20503;-83
2023/12/10 09:36:35;;;;;;;5.83;1.37;;;;;;;;;;5075749;28;20423;-86
2023/12/10 09:39:01;;;;;;;3.40;0.80;;;;;;;;;;5033449;28;20433;-90
2023/12/10 09:41:27;;;;;;;2.80;0.70;;;;;;;;;;5063820;28;20410;-89
2023/12/10 09:43:53;;;;;;;5.37;0.33;;;;;;;;;;5066699;28;20478;-86
2023/12/10 09:46:19;;;;;;;2.30;0.87;;;;;;;;;;5075364;28;20585;-89
2023/12/10 09:48:45;;;;;;;2.23;0.40;;;;;;;;;;5075998;28;20470;-89
2023/12/10 09:51:12;;;;;;;4.33;0.63;;;;;;;;;;5075889;28;20414;-89
2023/12/10 09:53:38;;;;;;;2.03;0.23;;;;;;;;;;5076010;28;20417;-87
2023/12/10 09:56:04;;;;;;;2.60;0.43;;;;;;;;;;5076168;28;20417;-86
2023/12/10 09:58:30;;;;;;;4.27;0.30;;;;;;;;;;5075746;28;20752;-88
2023/12/10 10:00:56;;;;;;;3.70;0.40;;;;;;;;;;5058112;28;20512;-88
2023/12/10 10:03:22;;;;;;;2.20;0.20;;;;;;;;;;5076064;28;20800;-90
2023/12/10 10:05:48;;;;;;;2.93;0.30;;;;;;;;;;5075061;28;20402;-85
2023/12/10 10:08:14;;;;;;;5.20;0.43;;;;;;;;;;5075492;28;20554;-87
2023/12/10 10:10:40;;;;;;;3.20;0.40;;;;;;;;;;5068500;28;20169;-88
2023/12/10 10:13:06;;;;;;;3.53;0.83;;;;;;;;;;5059120;28;20960;-89
2023/12/10 10:15:32;;;;;;;2.30;0.70;;;;;;;;;;5075413;28;20407;-88
2023/12/10 10:17:59;;;;;;;5.90;0.30;;;;;;;;;;5065717;28;20491;-89
2023/12/10 10:20:25;;;;;;;1.40;0.30;;;;;;;;;;5057026;28;20413;-88
2023/12/10 10:22:52;;;;;;;6.20;0.60;;;;;;;;;;5075294;28;20403;-90
2023/12/10 10:25:18;;;;;;;4.20;0.50;;;;;;;;;;5075341;28;20461;-89
2023/12/10 10:27:44;;;;;;;2.57;0.77;;;;;;;;;;5075016;28;20503;-89
2023/12/10 10:30:11;;;;;;;3.13;0.70;;;;;;;;;;5074943;28;20427;-88
2023/12/10 10:32:38;;;;;;;3.20;0.63;;;;;;;;;;5075524;28;20438;-90
2023/12/10 10:35:04;;;;;;;5.90;0.40;;;;;;;;;;5073710;28;20422;-90
2023/12/10 10:37:30;;;;;;;4.80;0.27;;;;;;;;;;5074874;28;20414;-90
2023/12/10 10:39:56;;;;;;;3.90;0.50;;;;;;;;;;5075187;28;20415;-90
2023/12/10 10:42:22;;;;;;;2.60;0.93;;;;;;;;;;5019417;28;20441;-89
2023/12/10 10:44:48;;;;;;;4.77;0.60;;;;;;;;;;5071992;28;20426;-89
2023/12/10 10:47:18;;;;;;;2.70;0.57;;;;;;;;;;5074775;28;20421;-89
2023/12/10 10:49:45;;;;;;;2.80;0.60;;;;;;;;;;5074049;28;20506;-90
2023/12/10 10:52:13;;;;;;;1.73;0.40;;;;;;;;;;5074724;28;20417;-89
2023/12/10 10:54:40;;;;;;;2.10;0.50;;;;;;;;;;5074824;28;20414;-89
2023/12/10 10:57:06;;;;;;;1.20;0.50;;;;;;;;;;5074736;28;20620;-90
2023/12/10 10:59:32;;;;;;;2.00;0.20;;;;;;;;;;5062161;28;21098;-88
2023/12/10 11:02:02;;;;;;;1.33;0.37;;;;;;;;;;5074716;28;20407;-90
2023/12/10 11:04:34;;;;;;;2.17;0.63;;;;;;;;;;5074047;28;20404;-89
2023/12/10 11:07:02;;;;;;;1.37;0.30;;;;;;;;;;5074474;28;20424;-89
2023/12/10 11:09:30;;;;;;;1.63;0.20;;;;;;;;;;5074905;28;20466;-90
2023/12/10 11:11:56;;;;;;;2.80;0.30;;;;;;;;;;5074439;28;20410;-87
2023/12/10 11:14:23;;;;;;;1.10;0.37;;;;;;;;;;5065951;28;20439;-89
2023/12/10 11:17:03;;;;;;;4.87;0.90;;;;;;;;;;5071708;28;20460;-89
2023/12/10 11:19:32;;;;;;;1.63;0.27;;;;;;;;;;5074004;28;20406;-89
2023/12/10 11:21:59;;;;;;;2.87;0.40;;;;;;;;;;5060043;28;20929;-89
2023/12/10 11:24:24;;;;;;;2.13;0.30;;;;;;;;;;5073867;28;20607;-90
2023/12/10 11:26:50;;;;;;;2.47;0.43;;;;;;;;;;5074870;28;20435;-90
2023/12/10 11:29:16;;;;;;;2.30;0.30;;;;;;;;;;5061892;28;20479;-90
2023/12/10 11:31:46;;;;;;;2.30;0.60;;;;;;;;;;5073954;28;20481;-90
2023/12/10 11:34:12;;;;;;;2.10;0.20;;;;;;;;;;5071761;28;20412;-90
2023/12/10 11:36:38;;;;;;;4.93;0.50;;;;;;;;;;5059471;28;20436;-89
2023/12/10 11:39:04;;;;;;;4.03;0.33;;;;;;;;;;5061083;28;20771;-89
2023/12/10 11:41:31;;;;;;;1.23;0.27;;;;;;;;;;5073745;28;20454;-88
2023/12/10 11:43:57;;;;;;;2.67;0.50;;;;;;;;;;5033243;28;20455;-88
2023/12/10 11:46:33;;;;;;;5.33;0.60;;;;;;;;;;5073684;28;20445;-88
2023/12/10 11:49:01;;;;;;;1.70;0.30;;;;;;;;;;5073172;28;20503;-89
2023/12/10 11:51:27;;;;;;;2.20;0.77;;;;;;;;;;5076657;28;20437;-89
2023/12/10 11:53:54;;;;;;;2.50;0.57;;;;;;;;;;5074755;28;20455;-86
2023/12/10 11:56:21;;;;;;;2.13;0.60;;;;;;;;;;5073493;28;20426;-88
2023/12/10 11:58:47;;;;;;;4.10;0.50;;;;;;;;;;5073472;28;20405;-90
2023/12/10 12:01:13;;;;;;;8.63;1.47;;;;;;;;;;5073272;28;20403;-82
2023/12/10 12:03:39;;;;;;;3.70;0.73;;;;;;;;;;5073120;28;20526;-89
2023/12/10 12:06:05;;;;;;;4.37;0.40;;;;;;;;;;5073227;28;20403;-80
2023/12/10 12:08:31;;;;;;;2.00;0.40;;;;;;;;;;5073690;28;20814;-89
2023/12/10 12:10:57;;;;;;;3.90;0.20;;;;;;;;;;5073550;28;20403;-86
2023/12/10 12:13:26;;;;;;;5.33;1.10;;;;;;;;;;5073649;28;20418;-88
2023/12/10 12:15:52;;;;;;;2.90;0.30;;;;;;;;;;5073752;28;20438;-89
2023/12/10 12:18:23;;;;;;;3.40;0.47;;;;;;;;;;5073686;28;20418;-89
2023/12/10 12:20:49;;;;;;;3.77;1.10;;;;;;;;;;5085967;28;20899;-86
2023/12/10 12:23:17;;;;;;;2.03;0.20;;;;;;;;;;5072929;28;20510;-87
2023/12/10 12:25:42;;;;;;;5.57;1.37;;;;;;;;;;5073036;28;21557;-89
2023/12/10 12:28:09;;;;;;;8.33;0.60;;;;;;;;;;5073221;28;20543;-84
2023/12/10 12:30:36;;;;;;;3.60;0.57;;;;;;;;;;5073241;28;20407;-87
2023/12/10 12:33:02;;;;;;;3.37;0.67;;;;;;;;;;5073374;28;20518;-86
2023/12/10 12:35:28;;;;;;;7.83;0.50;;;;;;;;;;5072506;28;20406;-88
2023/12/10 12:37:54;;;;;;;6.47;0.60;;;;;;;;;;5074367;28;20865;-84
2023/12/10 12:40:20;;;;;;;10.73;1.30;;;;;;;;;;5076699;28;20423;-80
2023/12/10 12:42:50;;;;;;;7.60;0.80;;;;;;;;;;5045369;28;20434;-81
2023/12/10 12:45:16;;;;;;;7.60;0.90;;;;;;;;;;5079774;28;20406;-84
2023/12/10 12:47:42;;;;;;;5.50;1.17;;;;;;;;;;5080110;28;20514;-81
2023/12/10 12:50:09;;;;;;;9.17;2.00;;;;;;;;;;5073651;28;20428;-82
2023/12/10 12:52:34;;;;;;;9.80;1.97;;;;;;;;;;5073250;28;20438;-89
2023/12/10 12:55:02;;;;;;;9.27;1.47;;;;;;;;;;5072885;28;20431;-89
2023/12/10 12:57:28;;;;;;;11.40;1.70;;;;;;;;;;5070296;28;20425;-81
2023/12/10 12:59:54;;;;;;;5.80;1.03;;;;;;;;;;5065338;28;20424;-87
2023/12/10 13:02:22;;;;;;;9.90;1.33;;;;;;;;;;5070805;28;20431;-88
2023/12/10 13:04:48;;;;;;;9.73;1.50;;;;;;;;;;5067880;28;20962;-84
2023/12/10 13:07:14;;;;;;;6.97;1.70;;;;;;;;;;5072193;28;20462;-84
2023/12/10 13:09:41;;;;;;;5.97;1.17;;;;;;;;;;5069499;28;20182;-83
2023/12/10 13:12:10;;;;;;;10.67;1.63;;;;;;;;;;5076279;28;20416;-87
2023/12/10 13:14:36;;;;;;;10.33;1.80;;;;;;;;;;5076317;28;20412;-86
2023/12/10 13:17:04;;;;;;;10.70;2.20;;;;;;;;;;5075563;28;20775;-89
2023/12/10 13:19:30;;;;;;;11.17;1.43;;;;;;;;;;5075298;28;20175;-84
2023/12/10 13:21:56;;;;;;;12.60;1.87;;;;;;;;;;5077475;28;20937;-86
2023/12/10 13:24:21;;;;;;;13.33;1.57;;;;;;;;;;5064179;28;20522;-85
2023/12/10 13:26:48;;;;;;;10.27;1.33;;;;;;;;;;5075943;28;20415;-87
2023/12/10 13:29:14;;;;;;;4.97;1.77;;;;;;;;;;5075890;28;20520;-90
2023/12/10 13:31:40;;;;;;;9.33;1.30;;;;;;;;;;5056193;28;20471;-88
2023/12/10 13:34:06;;;;;;;3.10;0.90;;;;;;;;;;5060265;28;20420;-85
2023/12/10 13:36:32;;;;;;;6.03;0.67;;;;;;;;;;5075534;28;20921;-87
2023/12/10 13:38:58;;;;;;;5.43;1.20;;;;;;;;;;5066242;28;20925;-89
2023/12/10 13:41:25;;;;;;;7.13;0.40;;;;;;;;;;5075756;28;20451;-87
2023/12/10 13:43:51;;;;;;;3.30;0.40;;;;;;;;;;5036402;28;20770;-80
2023/12/10 13:46:17;;;;;;;6.20;0.60;;;;;;;;;;5067073;28;20406;-87
2023/12/10 13:48:43;;;;;;;3.20;0.40;;;;;;;;;;5076427;28;20883;-89
2023/12/10 13:51:11;;;;;;;2.03;0.30;;;;;;;;;;5074926;28;20478;-91
2023/12/10 13:53:37;;;;;;;4.80;0.53;;;;;;;;;;5075691;28;20184;-85
2023/12/10 13:56:03;;;;;;;6.73;0.30;;;;;;;;;;5075529;28;21021;-90
2023/12/10 13:58:29;;;;;;;1.07;0.30;;;;;;;;;;5060229;28;20186;-87
2023/12/10 14:00:55;;;;;;;2.50;0.57;;;;;;;;;;5075447;28;20880;-90
2023/12/10 14:03:21;;;;;;;3.80;0.30;;;;;;;;;;5075648;28;20429;-88
2023/12/10 14:05:47;;;;;;;4.63;0.40;;;;;;;;;;5075340;28;20538;-84
2023/12/10 14:08:13;;;;;;;1.20;0.40;;;;;;;;;;5075327;28;20939;-90
2023/12/10 14:10:38;;;;;;;2.50;0.50;;;;;;;;;;5074627;28;20177;-86
2023/12/10 14:13:04;;;;;;;4.17;0.20;;;;;;;;;;5075829;28;20413;-89
2023/12/10 14:15:30;;;;;;;1.90;0.33;;;;;;;;;;5076178;28;20497;-88
2023/12/10 14:17:56;;;;;;;0.77;0.33;;;;;;;;;;5075809;28;20180;-83
2023/12/10 14:20:22;;;;;;;1.10;0.27;;;;;;;;;;5075423;28;20406;-85
2023/12/10 14:22:48;;;;;;;0.70;0.20;;;;;;;;;;5075910;28;20693;-86
2023/12/10 14:25:14;;;;;;;1.03;0.20;;;;;;;;;;5075107;28;20463;-90
2023/12/10 14:27:41;;;;;;;1.90;0.30;;;;;;;;;;5074168;28;20576;-81
2023/12/10 14:30:07;;;;;;;1.50;0.30;;;;;;;;;;5074266;28;20491;-89
2023/12/10 14:32:33;;;;;;;3.77;0.40;;;;;;;;;;5074744;28;20461;-91